createdAt,value
2023-04-18T00:00:05.148Z,6.53
2023-04-18T00:06:07.165Z,6.65
2023-04-18T00:12:11.064Z,6.98
2023-04-18T00:18:17.234Z,7.26
2023-04-18T00:24:19.834Z,7.30
2023-04-18T00:30:21.799Z,7.46
2023-04-18T00:36:23.720Z,7.51
2023-04-18T00:42:27.784Z,7.71
2023-04-18T00:48:34.631Z,7.75
2023-04-18T00:54:36.806Z,7.91
2023-04-18T01:00:38.756Z,7.92
2023-04-18T01:06:41.708Z,8.21
2023-04-18T01:12:43.619Z,8.27
2023-04-18T01:18:46.315Z,7.96
2023-04-18T01:24:48.269Z,8.04
2023-04-18T01:30:50.139Z,8.30
2023-04-18T01:36:52.058Z,8.18
2023-04-18T01:42:53.972Z,8.14
2023-04-18T01:48:59.603Z,8.12
2023-04-18T01:55:05.991Z,8.23
2023-04-18T02:01:07.962Z,8.26
2023-04-18T02:07:09.871Z,8.07
2023-04-18T02:13:11.770Z,7.96
2023-04-18T02:19:13.669Z,8.00
2023-04-18T02:25:15.659Z,7.95
2023-04-18T02:31:17.649Z,8.28
2023-04-18T02:37:19.577Z,8.20
2023-04-18T02:43:21.442Z,7.87
2023-04-18T02:49:23.489Z,8.03
2023-04-18T02:55:26.897Z,7.82
2023-04-18T03:01:29.042Z,7.75
2023-04-18T03:07:31.163Z,7.77
2023-04-18T03:13:35.191Z,7.62
2023-04-18T03:19:37.257Z,7.92
2023-04-18T03:25:39.158Z,7.85
2023-04-18T03:31:41.556Z,7.80
2023-04-18T03:37:43.604Z,7.74
2023-04-18T03:43:45.528Z,7.61
2023-04-18T03:49:47.416Z,7.82
2023-04-18T03:55:49.388Z,7.98
2023-04-18T04:01:51.305Z,8.05
2023-04-18T04:07:53.250Z,7.94
2023-04-18T04:13:55.211Z,7.80
2023-04-18T04:19:57.116Z,7.77
2023-04-18T04:26:03.096Z,7.72
2023-04-18T04:32:06.568Z,7.81
2023-04-18T04:38:08.603Z,7.92
2023-04-18T04:44:10.539Z,7.88
2023-04-18T04:50:15.587Z,7.97
2023-04-18T04:56:17.574Z,8.35
2023-04-18T05:02:23.209Z,8.12
2023-04-18T05:08:26.194Z,8.36
2023-04-18T05:14:28.081Z,8.73
2023-04-18T05:20:29.953Z,8.79
2023-04-18T05:26:31.853Z,8.97
2023-04-18T05:32:33.783Z,8.67
2023-04-18T05:38:35.746Z,8.89
2023-04-18T05:44:37.659Z,8.91
2023-04-18T05:50:39.924Z,8.87
2023-04-18T05:56:41.908Z,8.91
2023-04-18T06:02:43.981Z,9.04
2023-04-18T06:08:46.247Z,9.22
2023-04-18T06:14:49.382Z,9.32
2023-04-18T06:20:51.661Z,9.69
2023-04-18T06:26:55.198Z,9.73
2023-04-18T06:32:57.130Z,9.76
2023-04-18T06:38:59.087Z,9.99
2023-04-18T06:45:01.028Z,10.15
2023-04-18T06:51:03.342Z,10.39
2023-04-18T06:57:05.471Z,10.79
2023-04-18T07:03:11.438Z,12.56
2023-04-18T07:09:13.546Z,12.18
2023-04-18T07:15:15.553Z,11.36
2023-04-18T07:21:18.492Z,11.10
2023-04-18T07:27:20.384Z,11.66
2023-04-18T07:33:22.835Z,11.61
2023-04-18T07:39:24.755Z,11.55
2023-04-18T07:45:26.658Z,11.47
2023-04-18T07:51:31.828Z,11.08
2023-04-18T07:57:33.738Z,11.57
2023-04-18T08:03:37.112Z,12.23
2023-04-18T08:09:39.119Z,12.26
2023-04-18T08:15:41.113Z,12.91
2023-04-18T08:21:43.069Z,13.03
2023-04-18T08:27:45.073Z,13.08
2023-04-18T08:33:46.978Z,13.93
2023-04-18T08:39:48.868Z,14.88
2023-04-18T08:45:52.350Z,15.57
2023-04-18T08:51:54.282Z,15.78
2023-04-18T08:57:56.916Z,15.02
2023-04-18T09:03:58.868Z,16.13
2023-04-18T09:10:00.927Z,16.45
2023-04-18T09:16:02.859Z,16.44
2023-04-18T09:22:04.809Z,16.99
2023-04-18T09:28:28.478Z,17.09
2023-04-18T09:34:30.393Z,16.45
2023-04-18T09:40:33.484Z,17.05
2023-04-18T09:46:36.143Z,18.06
2023-04-18T09:52:42.675Z,18.02
2023-04-18T09:58:47.288Z,17.83
2023-04-18T10:04:54.314Z,17.80
2023-04-18T10:10:58.609Z,17.64
2023-04-18T10:17:01.087Z,18.60
2023-04-18T10:23:31.049Z,19.43
2023-04-18T10:29:52.904Z,18.38
2023-04-18T10:36:11.473Z,18.16
2023-04-18T10:42:13.397Z,16.21
2023-04-18T10:48:32.733Z,15.20
2023-04-18T10:55:04.977Z,15.52
2023-04-18T11:01:09.052Z,17.58
2023-04-18T11:07:11.020Z,19.35
2023-04-18T11:13:12.913Z,18.84
2023-04-18T11:19:23.781Z,19.25
2023-04-18T11:25:32.111Z,21.07
2023-04-18T11:31:34.156Z,22.11
2023-04-18T11:37:38.284Z,20.60
2023-04-18T11:43:46.464Z,20.55
2023-04-18T11:49:48.381Z,21.62
2023-04-18T11:55:56.554Z,22.48
2023-04-18T12:02:15.387Z,23.61
2023-04-18T12:08:20.940Z,20.39
2023-04-18T12:14:23.299Z,21.15
2023-04-18T12:20:25.406Z,21.72
2023-04-18T12:26:27.456Z,21.46
2023-04-18T12:32:29.366Z,23.14
2023-04-18T12:38:31.296Z,23.53
2023-04-18T12:44:34.642Z,23.34
2023-04-18T12:50:36.670Z,22.86
2023-04-18T12:56:38.640Z,21.67
2023-04-18T13:02:44.393Z,21.14
2023-04-18T13:08:47.470Z,19.16
2023-04-18T13:14:49.387Z,17.23
2023-04-18T13:20:51.439Z,16.39
2023-04-18T13:26:53.426Z,16.35
2023-04-18T13:32:55.453Z,15.77
2023-04-18T13:38:57.498Z,15.67
2023-04-18T13:45:00.000Z,17.19
2023-04-18T13:51:02.786Z,20.25
2023-04-18T13:57:06.957Z,20.63
2023-04-18T14:03:09.006Z,20.07
2023-04-18T14:09:10.962Z,21.13
2023-04-18T14:15:12.967Z,22.28
2023-04-18T14:21:14.857Z,22.93
2023-04-18T14:27:16.897Z,22.72
2023-04-18T14:33:18.866Z,20.55
2023-04-18T14:39:21.619Z,20.20
2023-04-18T14:45:23.569Z,19.39
2023-04-18T14:51:26.218Z,21.36
2023-04-18T14:57:29.301Z,20.90
2023-04-18T15:03:31.456Z,20.21
2023-04-18T15:09:39.502Z,18.96
2023-04-18T15:15:41.470Z,19.47
2023-04-18T15:21:43.364Z,17.88
2023-04-18T15:27:45.403Z,16.08
2023-04-18T15:33:47.313Z,15.69
2023-04-18T15:39:49.224Z,15.93
2023-04-18T15:45:51.450Z,15.36
2023-04-18T15:51:53.366Z,15.19
2023-04-18T15:57:55.797Z,15.14
2023-04-18T16:03:57.832Z,16.14
2023-04-18T16:10:02.617Z,15.99
2023-04-18T16:16:05.563Z,15.94
2023-04-18T16:22:07.884Z,15.39
2023-04-18T16:28:09.792Z,14.59
2023-04-18T16:34:11.801Z,14.29
2023-04-18T16:40:14.267Z,13.90
2023-04-18T16:46:16.238Z,13.94
2023-04-18T16:52:18.525Z,13.93
2023-04-18T16:58:22.879Z,13.84
2023-04-18T17:04:26.911Z,13.47
2023-04-18T17:10:30.377Z,13.60
2023-04-18T17:16:32.391Z,13.20
2023-04-18T17:22:34.945Z,13.24
2023-04-18T17:28:37.154Z,13.03
2023-04-18T17:34:39.070Z,13.11
2023-04-18T17:40:40.990Z,13.32
2023-04-18T17:46:42.866Z,13.06
2023-04-18T17:52:46.414Z,13.14
2023-04-18T17:58:49.341Z,12.97
2023-04-18T18:04:51.657Z,12.76
2023-04-18T18:10:53.556Z,12.68
2023-04-18T18:16:56.034Z,12.63
2023-04-18T18:23:01.690Z,12.51
2023-04-18T18:29:13.033Z,12.60
2023-04-18T18:35:15.381Z,12.78
2023-04-18T18:41:17.301Z,12.35
2023-04-18T18:47:19.358Z,12.31
2023-04-18T18:53:21.321Z,12.26
2023-04-18T18:59:23.429Z,12.40
2023-04-18T19:05:25.521Z,12.52
2023-04-18T19:11:27.834Z,12.43
2023-04-18T19:17:30.968Z,12.45
2023-04-18T19:23:33.038Z,12.65
2023-04-18T19:29:36.380Z,12.41
2023-04-18T19:35:38.429Z,12.34
2023-04-18T19:41:41.624Z,12.53
2023-04-18T19:47:44.907Z,12.50
2023-04-18T19:53:46.854Z,12.47
2023-04-18T19:59:48.744Z,12.74
2023-04-18T20:05:50.797Z,12.41
2023-04-18T20:11:54.287Z,12.52
2023-04-18T20:17:56.207Z,12.47
2023-04-18T20:23:59.219Z,12.39
2023-04-18T20:30:01.211Z,12.49
2023-04-18T20:36:03.580Z,12.30
2023-04-18T20:42:05.563Z,12.22
2023-04-18T20:48:07.618Z,12.24
2023-04-18T20:54:09.510Z,12.11
2023-04-18T21:00:13.888Z,12.02
2023-04-18T21:06:15.939Z,12.10
2023-04-18T21:12:17.858Z,11.82
2023-04-18T21:18:19.793Z,12.02
2023-04-18T21:24:21.771Z,11.85
2023-04-18T21:30:23.853Z,11.77
2023-04-18T21:36:27.833Z,11.93
2023-04-18T21:42:29.880Z,11.84
2023-04-18T21:48:31.902Z,12.01
2023-04-18T21:54:33.815Z,11.86
2023-04-18T22:00:35.752Z,11.97
2023-04-18T22:06:37.683Z,11.73
2023-04-18T22:12:39.718Z,11.59
2023-04-18T22:18:41.807Z,11.69
2023-04-18T22:24:45.000Z,11.80
2023-04-18T22:30:49.078Z,11.65
2023-04-18T22:36:51.106Z,11.52
2023-04-18T22:42:53.037Z,11.48
2023-04-18T22:48:55.224Z,11.56
2023-04-18T22:54:57.195Z,11.31
2023-04-18T23:00:59.915Z,11.33
2023-04-18T23:07:01.852Z,11.09
2023-04-18T23:13:03.805Z,11.22
2023-04-18T23:19:05.855Z,10.94
2023-04-18T23:25:07.940Z,10.77
2023-04-18T23:31:10.017Z,10.71
2023-04-18T23:37:12.102Z,10.83
2023-04-18T23:43:14.005Z,10.77
2023-04-18T23:49:16.610Z,10.90
2023-04-18T23:55:18.544Z,10.87
